| time (UTC) | temp F | wind direction | speed MPH | gust MPH | rain 1hr in | rain 24hr in | rain mn in | humidity % | barometer mb |
| 20260510190035 | 63 | 109 | 0.0 | 5.0 | 0.00 | 0.69 | 0.00 | 79 | 1013.1 |
| 20260510184529 | 62 | 267 | 1.0 | 6.0 | 0.00 | 0.69 | 0.00 | 85 | 1013.2 |
| 20260510183026 | 58 | 109 | 1.0 | 5.0 | 0.00 | 0.69 | 0.00 | 87 | 1013.5 |
| 20260510181526 | 57 | 170 | 3.0 | 6.0 | 0.00 | 0.69 | 0.00 | 87 | 1013.3 |
| 20260510180026 | 58 | 114 | 2.0 | 7.0 | 0.00 | 0.69 | 0.00 | 86 | 1013.1 |
| 20260510174523 | 58 | 187 | 1.0 | 4.0 | 0.00 | 0.69 | 0.00 | 87 | 1013.3 |
| 20260510173024 | 56 | 133 | 2.0 | 5.0 | 0.00 | 0.69 | 0.00 | 88 | 1013.4 |
| 20260510171523 | 56 | 115 | 1.0 | 4.0 | 0.00 | 0.69 | 0.00 | 90 | 1013.4 |
| 20260510170021 | 55 | 123 | 1.0 | 4.0 | 0.00 | 0.69 | 0.00 | 92 | 1013.6 |
| 20260510164526 | 55 | 125 | 0.0 | 4.0 | 0.00 | 0.69 | 0.00 | 93 | 1013.7 |
| 20260510163018 | 55 | 112 | 2.0 | 5.0 | 0.00 | 0.69 | 0.00 | 91 | 1013.8 |
| 20260510161517 | 56 | 196 | 2.0 | 5.0 | 0.00 | 0.69 | 0.00 | 92 | 1014.0 |
| 20260510160017 | 56 | 164 | 4.0 | 7.0 | 0.00 | 0.69 | 0.00 | 90 | 1013.9 |
| 20260510154516 | 57 | 115 | 1.0 | 5.0 | 0.00 | 0.69 | 0.00 | 90 | 1013.8 |
| 20260510153015 | 57 | 165 | 2.0 | 8.0 | 0.00 | 0.69 | 0.00 | 90 | 1013.8 |
| 20260510151513 | 58 | 144 | 3.0 | 6.0 | 0.00 | 0.69 | 0.00 | 90 | 1013.6 |
| 20260510150012 | 57 | 137 | 0.0 | 3.0 | 0.00 | 0.69 | 0.00 | 93 | 1013.3 |
| 20260510144515 | 56 | 168 | 0.0 | 3.0 | 0.00 | 0.69 | 0.00 | 93 | 1013.4 |
| 20260510143008 | 56 | 128 | 0.0 | 3.0 | 0.00 | 0.69 | 0.00 | 93 | 1013.5 |
| 20260510141504 | 55 | 108 | 1.0 | 3.0 | 0.00 | 0.69 | 0.00 | 94 | 1013.4 |
| 20260510140002 | 55 | 194 | 0.0 | 2.0 | 0.00 | 0.69 | 0.00 | 95 | 1013.6 |
| 20260510134502 | 54 | 116 | 0.0 | 2.0 | 0.00 | 0.69 | 0.00 | 95 | 1013.4 |
| 20260510133201 | 54 | 42 | 0.0 | 1.0 | 0.00 | 0.69 | 0.00 | 95 | 1013.2 |
| 20260510131550 | 54 | 47 | 0.0 | 3.0 | 0.00 | 0.69 | 0.00 | 95 | 1013.2 |
| 20260510130050 | 54 | 184 | 1.0 | 4.0 | 0.00 | 0.69 | 0.00 | 95 | 1013.2 |
| 20260510124555 | 54 | 183 | 1.0 | 4.0 | 0.00 | 0.69 | 0.00 | 95 | 1013.1 |
| 20260510123047 | 54 | 160 | 1.0 | 6.0 | 0.00 | 0.69 | 0.00 | 95 | 1012.7 |
| 20260510121546 | 53 | 173 | 3.0 | 7.0 | 0.00 | 0.69 | 0.00 | 94 | 1012.3 |
| 20260510120044 | 53 | 190 | 1.0 | 3.0 | 0.00 | 0.69 | 0.00 | 95 | 1012.7 |
| 20260510114551 | 53 | 159 | 0.0 | 1.0 | 0.00 | 0.69 | 0.00 | 95 | 1012.7 |
| 20260510113043 | 53 | 244 | 0.0 | 2.0 | 0.00 | 0.69 | 0.00 | 95 | 1012.7 |
| 20260510111541 | 53 | 140 | 0.0 | 1.0 | 0.00 | 0.69 | 0.00 | 96 | 1012.5 |
| 20260510110047 | 52 | 152 | 0.0 | 1.0 | 0.00 | 0.69 | 0.00 | 96 | 1012.5 |
| 20260510104540 | 52 | 161 | 0.0 | 1.0 | 0.00 | 0.69 | 0.00 | 96 | 1012.5 |
| 20260510103040 | 52 | 154 | 0.0 | 1.0 | 0.00 | 0.69 | 0.00 | 96 | 1012.9 |
| 20260510101537 | 52 | 153 | 0.0 | 1.0 | 0.00 | 0.69 | 0.00 | 96 | 1012.9 |
| 20260510100043 | 52 | 170 | 0.0 | 0.0 | 0.00 | 0.69 | 0.00 | 96 | 1012.8 |
| 20260510094544 | 52 | 170 | 0.0 | 0.0 | 0.00 | 0.70 | 0.00 | 96 | 1012.6 |
| 20260510093035 | 52 | 170 | 0.0 | 0.0 | 0.00 | 0.70 | 0.00 | 96 | 1012.1 |
| 20260510091540 | 52 | 153 | 0.0 | 2.0 | 0.00 | 0.70 | 0.00 | 96 | 1012.0 |
| 20260510090033 | 52 | 163 | 0.0 | 1.0 | 0.00 | 0.70 | 0.00 | 96 | 1011.9 |
| 20260510084534 | 52 | 175 | 0.0 | 1.0 | 0.00 | 0.70 | 0.00 | 96 | 1011.8 |
| 20260510083048 | 52 | 153 | 0.0 | 1.0 | 0.00 | 0.70 | 0.00 | 96 | 1011.8 |
| 20260510081529 | 52 | 153 | 0.0 | 1.0 | 0.00 | 0.70 | 0.00 | 96 | 1011.8 |
| 20260510080029 | 52 | 153 | 0.0 | 1.0 | 0.00 | 0.70 | 0.00 | 96 | 1011.9 |
| 20260510074527 | 52 | 170 | 0.0 | 2.0 | 0.00 | 0.70 | 0.00 | 95 | 1011.8 |
| 20260510073026 | 52 | 115 | 0.0 | 1.0 | 0.00 | 0.70 | 0.00 | 95 | 1011.8 |
| 20260510071533 | 52 | 115 | 0.0 | 1.0 | 0.00 | 0.70 | 0.00 | 95 | 1011.8 |
| 20260510070027 | 52 | 160 | 0.0 | 1.0 | 0.00 | 0.70 | 0.00 | 95 | 1011.5 |
| 20260510064524 | 52 | 139 | 0.0 | 1.0 | 0.00 | 0.70 | 0.00 | 95 | 1011.4 |
| 20260510063024 | 52 | 139 | 0.0 | 0.0 | 0.00 | 0.70 | 0.00 | 94 | 1011.3 |
| 20260510061522 | 52 | 139 | 0.0 | 1.0 | 0.00 | 0.70 | 0.00 | 94 | 1011.4 |
| 20260510060035 | 52 | 139 | 0.0 | 2.0 | 0.00 | 0.70 | 0.00 | 94 | 1011.2 |
| 20260510054529 | 52 | 187 | 0.0 | 1.0 | 0.00 | 0.70 | 0.00 | 94 | 1011.6 |
| 20260510053018 | 52 | 170 | 0.0 | 1.0 | 0.00 | 0.70 | 0.00 | 93 | 1011.6 |
| 20260510051517 | 52 | 170 | 0.0 | 2.0 | 0.00 | 0.70 | 0.00 | 93 | 1011.3 |
| 20260510050015 | 52 | 156 | 0.0 | 1.0 | 0.00 | 0.70 | 0.00 | 93 | 1011.2 |
| 20260510044516 | 52 | 248 | 0.0 | 1.0 | 0.00 | 0.70 | 0.00 | 93 | 1011.0 |
| 20260510043014 | 52 | 162 | 0.0 | 1.0 | 0.00 | 0.70 | 0.00 | 93 | 1011.0 |
| 20260510041512 | 52 | 201 | 1.0 | 3.0 | 0.00 | 0.70 | 0.00 | 93 | 1011.2 |
| 20260510040011 | 52 | 248 | 0.0 | 1.0 | 0.00 | 0.70 | 0.00 | 93 | 1011.2 |
| 20260510034519 | 52 | 99 | 0.0 | 2.0 | 0.00 | 0.70 | 0.70 | 93 | 1011.1 |
| 20260510033009 | 52 | 195 | 0.0 | 4.0 | 0.00 | 0.70 | 0.70 | 93 | 1011.3 |
| 20260510031510 | 52 | 150 | 0.0 | 1.0 | 0.00 | 0.70 | 0.70 | 93 | 1011.3 |
| 20260510030108 | 52 | 55 | 0.0 | 1.0 | 0.00 | 0.70 | 0.70 | 93 | 1011.4 |
| 20260510024508 | 52 | 143 | 0.0 | 1.0 | 0.00 | 0.70 | 0.70 | 93 | 1011.5 |
| 20260510023006 | 52 | 125 | 0.0 | 1.0 | 0.00 | 0.70 | 0.70 | 93 | 1011.5 |
| 20260510021506 | 52 | 154 | 0.0 | 1.0 | 0.00 | 0.70 | 0.70 | 93 | 1011.6 |
| 20260510020005 | 52 | 116 | 0.0 | 1.0 | 0.00 | 0.70 | 0.70 | 94 | 1011.8 |
| 20260510014507 | 52 | 101 | 0.0 | 1.0 | 0.03 | 0.70 | 0.70 | 94 | 1011.7 |
| 20260510013007 | 52 | 104 | 0.0 | 2.0 | 0.06 | 0.70 | 0.70 | 93 | 1011.7 |
| 20260510011507 | 52 | 153 | 0.0 | 2.0 | 0.06 | 0.70 | 0.70 | 93 | 1011.8 |
| 20260510010005 | 52 | 113 | 0.0 | 3.0 | 0.06 | 0.70 | 0.70 | 93 | 1011.8 |
| 20260510004503 | 52 | 77 | 1.0 | 3.0 | 0.03 | 0.67 | 0.67 | 93 | 1012.2 |
| 20260510003004 | 51 | 41 | 0.0 | 1.0 | 0.00 | 0.64 | 0.64 | 93 | 1011.8 |
| 20260510001502 | 51 | 132 | 0.0 | 1.0 | 0.00 | 0.64 | 0.64 | 92 | 1011.4 |
| 20260510000001 | 52 | 130 | 0.0 | 2.0 | 0.01 | 0.64 | 0.64 | 91 | 1011.3 |
| 20260509234502 | 52 | 180 | 0.0 | 3.0 | 0.04 | 0.64 | 0.64 | 91 | 1011.5 |
| 20260509233059 | 52 | 120 | 0.0 | 4.0 | 0.08 | 0.64 | 0.64 | 91 | 1011.6 |
| 20260509231605 | 53 | 229 | 0.0 | 4.0 | 0.10 | 0.64 | 0.64 | 91 | 1011.9 |
| 20260509224601 | 54 | 244 | 1.0 | 4.0 | 0.07 | 0.60 | 0.60 | 92 | 1012.2 |
| 20260509223058 | 55 | 258 | 0.0 | 3.0 | 0.04 | 0.56 | 0.56 | 93 | 1012.4 |
| 20260509221602 | 55 | 236 | 0.0 | 3.0 | 0.03 | 0.54 | 0.54 | 93 | 1012.2 |
| 20260509220106 | 55 | 310 | 0.0 | 1.0 | 0.04 | 0.54 | 0.54 | 94 | 1012.1 |
| 20260509214602 | 55 | 262 | 0.0 | 2.0 | 0.10 | 0.53 | 0.53 | 94 | 1012.2 |
| 20260509213124 | 54 | 308 | 0.0 | 1.0 | 0.15 | 0.52 | 0.52 | 94 | 1012.2 |
| 20260509211555 | 54 | 349 | 0.0 | 7.0 | 0.35 | 0.51 | 0.51 | 93 | 1012.1 |
| 20260509210105 | 55 | 208 | 1.0 | 6.0 | 0.47 | 0.50 | 0.50 | 92 | 1012.1 |
| 20260509205152 | 56 | 227 | 1.0 | 3.0 | 0.44 | 0.46 | 0.46 | 93 | 1012.1 |
| 20260509204632 | 55 | 95 | 0.0 | 3.0 | 0.41 | 0.43 | 0.43 | 93 | 1012.0 |
| 20260509204146 | 56 | 271 | 1.0 | 3.0 | 0.38 | 0.40 | 0.40 | 92 | 1011.9 |
| 20260509203239 | 56 | 128 | 0.0 | 4.0 | 0.35 | 0.37 | 0.37 | 92 | 1011.9 |
| 20260509201530 | 56 | 262 | 1.0 | 5.0 | 0.14 | 0.15 | 0.15 | 90 | 1012.0 |
| 20260509200030 | 57 | 233 | 2.0 | 8.0 | 0.02 | 0.03 | 0.03 | 86 | 1012.1 |
| 20260509194531 | 58 | 302 | 4.0 | 11.0 | 0.01 | 0.02 | 0.02 | 84 | 1011.8 |
| 20260509193029 | 58 | 206 | 3.0 | 16.0 | 0.01 | 0.02 | 0.02 | 84 | 1011.3 |
| 20260509191527 | 60 | 312 | 3.0 | 12.0 | 0.00 | 0.01 | 0.01 | 75 | 1011.5 |